| time (UTC) | temp C | wind direction | speed KPH | gust KPH | rain 1hr cm | rain 24hr cm | rain mn cm | humidity % | barometer mb |
| 20260508001539 | 7 | 241 | 0.0 | 4.8 | 0.36 | 2.29 | 2.29 | 96 | 1002.8 |
| 20260508000039 | 7 | 219 | 0.0 | 8.0 | 0.23 | 2.16 | 2.16 | 96 | 1002.8 |
| 20260507234538 | 7 | 0 | 3.2 | 22.5 | 0.13 | 2.06 | 2.06 | 96 | 1002.4 |
| 20260507233039 | 7 | 308 | 12.9 | 29.0 | 0.05 | 1.98 | 1.98 | 95 | 1002.1 |
| 20260507231543 | 8 | 267 | 12.9 | 33.8 | 0.00 | 1.93 | 1.93 | 95 | 1001.8 |
| 20260507230037 | 11 | 265 | 14.5 | 25.7 | 0.00 | 1.93 | 1.93 | 93 | 1001.6 |
| 20260507224537 | 11 | 210 | 6.4 | 12.9 | 0.00 | 1.93 | 1.93 | 94 | 1001.2 |
| 20260507223040 | 12 | 241 | 3.2 | 6.4 | 0.00 | 1.93 | 1.93 | 93 | 1001.1 |
| 20260507221538 | 12 | 0 | 1.6 | 14.5 | 0.00 | 1.93 | 1.93 | 93 | 1001.1 |
| 20260507220038 | 12 | 156 | 4.8 | 16.1 | 0.00 | 1.93 | 1.93 | 93 | 1000.9 |
| 20260507214552 | 12 | 157 | 1.6 | 8.0 | 0.00 | 1.93 | 1.93 | 93 | 1000.9 |
| 20260507213039 | 12 | 173 | 3.2 | 14.5 | 0.00 | 1.93 | 1.93 | 93 | 1000.8 |
| 20260507211537 | 12 | 102 | 8.0 | 16.1 | 0.00 | 1.93 | 1.93 | 94 | 1000.8 |
| 20260507210049 | 12 | 152 | 6.4 | 17.7 | 0.00 | 1.93 | 1.93 | 94 | 1000.8 |
| 20260507204539 | 12 | 189 | 11.3 | 19.3 | 0.05 | 1.93 | 1.93 | 94 | 1000.6 |
| 20260507203048 | 12 | 166 | 3.2 | 20.9 | 0.15 | 1.93 | 1.93 | 95 | 1000.8 |
| 20260507201543 | 12 | 119 | 11.3 | 25.7 | 0.23 | 1.93 | 1.93 | 95 | 1000.3 |
| 20260507200043 | 12 | 107 | 16.1 | 33.8 | 0.33 | 1.93 | 1.93 | 95 | 999.8 |
| 20260507194600 | 12 | 106 | 14.5 | 22.5 | 0.36 | 1.88 | 1.88 | 96 | 1001.0 |
| 20260507193038 | 12 | 87 | 8.0 | 22.5 | 0.33 | 1.78 | 1.78 | 96 | 1001.7 |
| 20260507191543 | 12 | 174 | 3.2 | 16.1 | 0.38 | 1.68 | 1.68 | 96 | 1002.9 |
| 20260507190038 | 12 | 129 | 9.7 | 19.3 | 0.51 | 1.60 | 1.60 | 96 | 1002.6 |
| 20260507184540 | 12 | 152 | 11.3 | 24.1 | 0.69 | 1.52 | 1.52 | 96 | 1003.1 |
| 20260507183038 | 12 | 147 | 8.0 | 20.9 | 1.04 | 1.42 | 1.42 | 96 | 1003.1 |
| 20260507181542 | 11 | 162 | 8.0 | 19.3 | 1.19 | 1.30 | 1.30 | 96 | 1003.5 |
| 20260507180041 | 11 | 6 | 6.4 | 22.5 | 1.04 | 1.09 | 1.09 | 95 | 1003.7 |
| 20260507174544 | 11 | 194 | 8.0 | 27.4 | 0.79 | 0.81 | 0.81 | 94 | 1003.8 |
| 20260507173039 | 12 | 221 | 12.9 | 35.4 | 0.36 | 0.36 | 0.36 | 93 | 1003.4 |
| 20260507171545 | 12 | 250 | 12.9 | 43.5 | 0.10 | 0.10 | 0.10 | 92 | 1002.9 |
| 20260507170040 | 13 | 188 | 12.9 | 33.8 | 0.05 | 0.05 | 0.05 | 90 | 1002.8 |
| 20260507164542 | 13 | 179 | 12.9 | 35.4 | 0.03 | 0.03 | 0.03 | 88 | 1002.9 |
| 20260507163039 | 15 | 163 | 12.9 | 41.8 | 0.00 | 0.00 | 0.00 | 82 | 1003.2 |
| 20260507161542 | 15 | 169 | 12.9 | 32.2 | 0.00 | 0.00 | 0.00 | 83 | 1003.5 |
| 20260507160037 | 15 | 0 | 14.5 | 41.8 | 0.00 | 0.00 | 0.00 | 81 | 1003.7 |
| 20260507154538 | 15 | 152 | 22.5 | 45.1 | 0.00 | 0.00 | 0.00 | 78 | 1004.0 |
| 20260507153042 | 16 | 131 | 19.3 | 49.9 | 0.00 | 0.00 | 0.00 | 78 | 1004.3 |
| 20260507151539 | 16 | 142 | 19.3 | 46.7 | 0.00 | 0.00 | 0.00 | 78 | 1004.8 |
| 20260507150039 | 16 | 50 | 20.9 | 48.3 | 0.00 | 0.00 | 0.00 | 78 | 1005.0 |
| 20260507144537 | 16 | 165 | 17.7 | 43.5 | 0.00 | 0.00 | 0.00 | 79 | 1005.0 |
| 20260507143038 | 16 | 142 | 19.3 | 41.8 | 0.00 | 0.00 | 0.00 | 80 | 1005.1 |
| 20260507141544 | 15 | 136 | 20.9 | 40.2 | 0.00 | 0.00 | 0.00 | 82 | 1005.4 |
| 20260507140041 | 15 | 142 | 25.7 | 46.7 | 0.00 | 0.00 | 0.00 | 84 | 1005.4 |
| 20260507134541 | 15 | 216 | 22.5 | 45.1 | 0.00 | 0.00 | 0.00 | 82 | 1005.7 |
| 20260507133039 | 15 | 102 | 24.1 | 49.9 | 0.00 | 0.00 | 0.00 | 82 | 1005.7 |
| 20260507131548 | 15 | 157 | 19.3 | 53.1 | 0.00 | 0.00 | 0.00 | 83 | 1006.0 |
| 20260507130041 | 15 | 142 | 22.5 | 45.1 | 0.00 | 0.00 | 0.00 | 83 | 1006.4 |
| 20260507124537 | 15 | 173 | 20.9 | 48.3 | 0.00 | 0.00 | 0.00 | 83 | 1006.4 |
| 20260507123037 | 15 | 142 | 17.7 | 53.1 | 0.00 | 0.00 | 0.00 | 81 | 1006.6 |
| 20260507121536 | 15 | 164 | 24.1 | 49.9 | 0.00 | 0.00 | 0.00 | 82 | 1006.4 |
| 20260507120038 | 15 | 152 | 22.5 | 40.2 | 0.00 | 0.00 | 0.00 | 84 | 1006.6 |
| 20260507114541 | 15 | 152 | 24.1 | 51.5 | 0.00 | 0.00 | 0.00 | 84 | 1006.9 |
| 20260507113037 | 15 | 175 | 25.7 | 64.4 | 0.00 | 0.00 | 0.00 | 84 | 1006.9 |
| 20260507111537 | 15 | 182 | 24.1 | 48.3 | 0.00 | 0.00 | 0.00 | 84 | 1007.7 |
| 20260507110042 | 15 | 186 | 24.1 | 40.2 | 0.00 | 0.00 | 0.00 | 84 | 1007.3 |
| 20260507104540 | 15 | 189 | 17.7 | 43.5 | 0.00 | 0.00 | 0.00 | 83 | 1007.9 |
| 20260507103037 | 15 | 178 | 20.9 | 43.5 | 0.00 | 0.00 | 0.00 | 83 | 1007.9 |
| 20260507101538 | 15 | 236 | 16.1 | 41.8 | 0.00 | 0.00 | 0.00 | 83 | 1008.1 |
| 20260507100041 | 15 | 142 | 19.3 | 45.1 | 0.00 | 0.00 | 0.00 | 84 | 1008.5 |
| 20260507094538 | 13 | 186 | 20.9 | 43.5 | 0.00 | 0.00 | 0.00 | 87 | 1008.2 |
| 20260507093045 | 13 | 161 | 14.5 | 33.8 | 0.00 | 0.00 | 0.00 | 87 | 1009.2 |
| 20260507091540 | 13 | 176 | 11.3 | 30.6 | 0.00 | 0.00 | 0.00 | 88 | 1009.5 |
| 20260507090038 | 13 | 158 | 12.9 | 29.0 | 0.00 | 0.00 | 0.00 | 88 | 1009.7 |
| 20260507084540 | 13 | 108 | 12.9 | 30.6 | 0.00 | 0.00 | 0.00 | 88 | 1009.8 |
| 20260507083037 | 13 | 190 | 11.3 | 25.7 | 0.00 | 0.00 | 0.00 | 87 | 1010.3 |
| 20260507081537 | 13 | 215 | 8.0 | 24.1 | 0.00 | 0.00 | 0.00 | 86 | 1009.3 |
| 20260507080040 | 14 | 191 | 9.7 | 25.7 | 0.00 | 0.00 | 0.00 | 86 | 1010.1 |
| 20260507074537 | 14 | 181 | 9.7 | 32.2 | 0.00 | 0.00 | 0.00 | 84 | 1010.5 |
| 20260507073039 | 14 | 231 | 11.3 | 30.6 | 0.00 | 0.00 | 0.00 | 85 | 1010.7 |
| 20260507071600 | 14 | 160 | 6.4 | 24.1 | 0.00 | 0.00 | 0.00 | 83 | 1011.4 |
| 20260507070039 | 15 | 152 | 11.3 | 29.0 | 0.00 | 0.00 | 0.00 | 82 | 1011.5 |
| 20260507064538 | 14 | 171 | 11.3 | 29.0 | 0.00 | 0.00 | 0.00 | 81 | 1011.4 |
| 20260507063044 | 15 | 152 | 12.9 | 29.0 | 0.00 | 0.00 | 0.00 | 81 | 1011.5 |
| 20260507061539 | 15 | 175 | 11.3 | 35.4 | 0.00 | 0.00 | 0.00 | 79 | 1011.7 |
| 20260507060038 | 15 | 169 | 12.9 | 32.2 | 0.00 | 0.00 | 0.00 | 76 | 1011.7 |
| 20260507054540 | 15 | 180 | 14.5 | 32.2 | 0.00 | 0.00 | 0.00 | 72 | 1011.8 |
| 20260507053109 | 15 | 187 | 16.1 | 33.8 | 0.00 | 0.00 | 0.00 | 70 | 1012.4 |
| 20260507051543 | 13 | 221 | 6.4 | 17.7 | 0.00 | 0.00 | 0.00 | 75 | 1013.0 |
| 20260507050040 | 14 | 137 | 6.4 | 22.5 | 0.00 | 0.00 | 0.00 | 76 | 1013.3 |
| 20260507044538 | 13 | 181 | 8.0 | 19.3 | 0.00 | 0.00 | 0.00 | 76 | 1013.6 |
| 20260507043039 | 14 | 158 | 9.7 | 22.5 | 0.00 | 0.00 | 0.00 | 76 | 1013.9 |
| 20260507041538 | 14 | 0 | 8.0 | 24.1 | 0.00 | 0.00 | 0.00 | 77 | 1014.3 |
| 20260507040037 | 14 | 0 | 8.0 | 29.0 | 0.00 | 0.00 | 0.00 | 77 | 1014.5 |
| 20260507034539 | 14 | 152 | 12.9 | 30.6 | 0.00 | 0.00 | 0.00 | 77 | 1014.7 |
| 20260507033044 | 14 | 137 | 12.9 | 29.0 | 0.00 | 0.00 | 0.00 | 78 | 1015.0 |
| 20260507031540 | 14 | 179 | 12.9 | 27.4 | 0.00 | 0.00 | 0.00 | 78 | 1015.2 |
| 20260507030039 | 14 | 191 | 11.3 | 29.0 | 0.00 | 0.00 | 0.00 | 77 | 1015.3 |
| 20260507024540 | 14 | 179 | 11.3 | 32.2 | 0.00 | 0.00 | 0.00 | 76 | 1015.5 |
| 20260507023039 | 15 | 195 | 12.9 | 32.2 | 0.00 | 0.00 | 0.00 | 76 | 1015.6 |
| 20260507021537 | 15 | 147 | 11.3 | 30.6 | 0.00 | 0.00 | 0.00 | 75 | 1015.7 |
| 20260507020042 | 14 | 163 | 12.9 | 30.6 | 0.00 | 0.00 | 0.00 | 76 | 1015.8 |
| 20260507014548 | 15 | 206 | 11.3 | 27.4 | 0.00 | 0.00 | 0.00 | 77 | 1015.8 |
| 20260507013037 | 15 | 162 | 14.5 | 32.2 | 0.00 | 0.00 | 0.00 | 77 | 1015.8 |
| 20260507011540 | 15 | 164 | 17.7 | 33.8 | 0.00 | 0.00 | 0.00 | 77 | 1015.9 |
| 20260507010037 | 15 | 171 | 14.5 | 37.0 | 0.00 | 0.00 | 0.00 | 77 | 1016.3 |
| 20260507004545 | 14 | 166 | 11.3 | 25.7 | 0.00 | 0.00 | 0.00 | 77 | 1016.4 |
| 20260507003038 | 14 | 198 | 11.3 | 27.4 | 0.00 | 0.00 | 0.00 | 76 | 1016.3 |